sensor_id;sensor_type;location;lat;lon;timestamp;temperature;humidity
16417;DHT22;8317;52.186;5.688;2022-12-07T00:00:44;4.20;99.90
16417;DHT22;8317;52.186;5.688;2022-12-07T00:03:11;4.30;99.90
16417;DHT22;8317;52.186;5.688;2022-12-07T00:05:38;4.20;99.90
16417;DHT22;8317;52.186;5.688;2022-12-07T00:08:06;4.20;99.90
16417;DHT22;8317;52.186;5.688;2022-12-07T00:10:33;4.00;99.90
16417;DHT22;8317;52.186;5.688;2022-12-07T00:13:00;3.90;99.90
16417;DHT22;8317;52.186;5.688;2022-12-07T00:15:27;3.80;99.90
16417;DHT22;8317;52.186;5.688;2022-12-07T00:17:54;3.70;99.90
16417;DHT22;8317;52.186;5.688;2022-12-07T00:20:21;3.70;99.90
16417;DHT22;8317;52.186;5.688;2022-12-07T00:22:48;3.90;99.90
16417;DHT22;8317;52.186;5.688;2022-12-07T00:25:16;3.80;99.90
16417;DHT22;8317;52.186;5.688;2022-12-07T00:27:43;3.70;99.90
16417;DHT22;8317;52.186;5.688;2022-12-07T00:30:10;3.60;99.90
16417;DHT22;8317;52.186;5.688;2022-12-07T00:32:37;3.70;99.90
16417;DHT22;8317;52.186;5.688;2022-12-07T00:35:04;3.60;99.90
16417;DHT22;8317;52.186;5.688;2022-12-07T00:37:31;3.60;99.90
16417;DHT22;8317;52.186;5.688;2022-12-07T00:39:58;3.50;99.90
16417;DHT22;8317;52.186;5.688;2022-12-07T00:42:26;3.50;99.90
16417;DHT22;8317;52.186;5.688;2022-12-07T00:44:53;3.50;99.90
16417;DHT22;8317;52.186;5.688;2022-12-07T00:47:20;3.60;99.90
16417;DHT22;8317;52.186;5.688;2022-12-07T00:49:47;3.60;99.90
16417;DHT22;8317;52.186;5.688;2022-12-07T00:52:14;3.60;99.90
16417;DHT22;8317;52.186;5.688;2022-12-07T00:54:41;3.50;99.90
16417;DHT22;8317;52.186;5.688;2022-12-07T00:57:08;3.40;99.90
16417;DHT22;8317;52.186;5.688;2022-12-07T00:59:36;3.40;99.90
16417;DHT22;8317;52.186;5.688;2022-12-07T01:02:03;3.30;99.90
16417;DHT22;8317;52.186;5.688;2022-12-07T01:04:30;3.20;99.90
16417;DHT22;8317;52.186;5.688;2022-12-07T01:06:56;3.20;99.90
16417;DHT22;8317;52.186;5.688;2022-12-07T01:09:23;3.30;99.90
16417;DHT22;8317;52.186;5.688;2022-12-07T01:11:50;3.40;99.90
16417;DHT22;8317;52.186;5.688;2022-12-07T01:14:17;3.30;99.90
16417;DHT22;8317;52.186;5.688;2022-12-07T01:16:45;3.30;99.90
16417;DHT22;8317;52.186;5.688;2022-12-07T01:19:12;3.20;99.90
16417;DHT22;8317;52.186;5.688;2022-12-07T01:21:39;3.20;99.90
16417;DHT22;8317;52.186;5.688;2022-12-07T01:24:09;3.10;99.90
16417;DHT22;8317;52.186;5.688;2022-12-07T01:26:36;3.00;99.90
16417;DHT22;8317;52.186;5.688;2022-12-07T01:29:03;2.90;99.90
16417;DHT22;8317;52.186;5.688;2022-12-07T01:31:30;2.90;99.90
16417;DHT22;8317;52.186;5.688;2022-12-07T01:33:59;2.90;99.90
16417;DHT22;8317;52.186;5.688;2022-12-07T01:36:28;2.90;99.90
16417;DHT22;8317;52.186;5.688;2022-12-07T01:38:57;2.90;99.90
16417;DHT22;8317;52.186;5.688;2022-12-07T01:41:25;2.90;99.90
16417;DHT22;8317;52.186;5.688;2022-12-07T01:44:20;2.90;99.90
16417;DHT22;8317;52.186;5.688;2022-12-07T01:46:48;2.70;99.90
16417;DHT22;8317;52.186;5.688;2022-12-07T01:49:24;2.80;99.90
16417;DHT22;8317;52.186;5.688;2022-12-07T01:51:57;2.70;99.90
16417;DHT22;8317;52.186;5.688;2022-12-07T01:54:25;2.70;99.90
16417;DHT22;8317;52.186;5.688;2022-12-07T01:56:54;2.70;99.90
16417;DHT22;8317;52.186;5.688;2022-12-07T01:59:23;2.70;99.90
16417;DHT22;8317;52.186;5.688;2022-12-07T02:01:51;2.70;99.90
16417;DHT22;8317;52.186;5.688;2022-12-07T02:04:18;2.70;99.90
16417;DHT22;8317;52.186;5.688;2022-12-07T02:06:47;2.70;99.90
16417;DHT22;8317;52.186;5.688;2022-12-07T02:09:14;2.70;99.90
16417;DHT22;8317;52.186;5.688;2022-12-07T02:11:42;2.80;99.90
16417;DHT22;8317;52.186;5.688;2022-12-07T02:14:08;2.80;99.90
16417;DHT22;8317;52.186;5.688;2022-12-07T02:16:42;2.80;99.90
16417;DHT22;8317;52.186;5.688;2022-12-07T02:19:41;2.80;99.90
16417;DHT22;8317;52.186;5.688;2022-12-07T02:22:25;2.70;99.90
16417;DHT22;8317;52.186;5.688;2022-12-07T02:24:59;2.70;99.90
16417;DHT22;8317;52.186;5.688;2022-12-07T02:27:46;2.80;99.90
16417;DHT22;8317;52.186;5.688;2022-12-07T02:30:17;2.90;99.90
16417;DHT22;8317;52.186;5.688;2022-12-07T02:32:50;2.90;99.90
16417;DHT22;8317;52.186;5.688;2022-12-07T02:35:20;2.90;99.90
16417;DHT22;8317;52.186;5.688;2022-12-07T02:37:53;3.00;99.90
16417;DHT22;8317;52.186;5.688;2022-12-07T02:40:25;2.90;99.90
16417;DHT22;8317;52.186;5.688;2022-12-07T02:43:00;2.90;99.90
16417;DHT22;8317;52.186;5.688;2022-12-07T02:45:31;2.90;99.90
16417;DHT22;8317;52.186;5.688;2022-12-07T02:48:01;2.90;99.90
16417;DHT22;8317;52.186;5.688;2022-12-07T02:50:29;2.90;99.90
16417;DHT22;8317;52.186;5.688;2022-12-07T02:52:56;3.00;99.90
16417;DHT22;8317;52.186;5.688;2022-12-07T02:55:26;3.00;99.90
16417;DHT22;8317;52.186;5.688;2022-12-07T02:58:11;3.20;99.90
16417;DHT22;8317;52.186;5.688;2022-12-07T03:00:52;3.30;99.90
16417;DHT22;8317;52.186;5.688;2022-12-07T03:03:21;3.30;99.90
16417;DHT22;8317;52.186;5.688;2022-12-07T03:05:59;3.30;99.90
16417;DHT22;8317;52.186;5.688;2022-12-07T03:08:37;3.40;99.90
16417;DHT22;8317;52.186;5.688;2022-12-07T03:11:06;3.40;99.90
16417;DHT22;8317;52.186;5.688;2022-12-07T03:13:40;3.50;99.90
16417;DHT22;8317;52.186;5.688;2022-12-07T03:16:14;3.50;99.90
16417;DHT22;8317;52.186;5.688;2022-12-07T03:18:46;3.40;99.90
16417;DHT22;8317;52.186;5.688;2022-12-07T03:21:16;3.30;99.90
16417;DHT22;8317;52.186;5.688;2022-12-07T03:23:46;3.30;99.90
16417;DHT22;8317;52.186;5.688;2022-12-07T03:26:17;3.30;99.90
16417;DHT22;8317;52.186;5.688;2022-12-07T03:28:50;3.30;99.90
16417;DHT22;8317;52.186;5.688;2022-12-07T03:31:22;3.20;99.90
16417;DHT22;8317;52.186;5.688;2022-12-07T03:33:57;3.30;99.90
16417;DHT22;8317;52.186;5.688;2022-12-07T03:36:27;3.30;99.90
16417;DHT22;8317;52.186;5.688;2022-12-07T03:38:58;3.40;99.90
16417;DHT22;8317;52.186;5.688;2022-12-07T03:41:29;3.40;99.90
16417;DHT22;8317;52.186;5.688;2022-12-07T03:43:57;3.40;99.90
16417;DHT22;8317;52.186;5.688;2022-12-07T03:46:34;3.30;99.90
16417;DHT22;8317;52.186;5.688;2022-12-07T03:49:08;3.20;99.90
16417;DHT22;8317;52.186;5.688;2022-12-07T03:51:43;3.30;99.90
16417;DHT22;8317;52.186;5.688;2022-12-07T03:54:15;3.20;99.90
16417;DHT22;8317;52.186;5.688;2022-12-07T03:56:45;3.30;99.90
16417;DHT22;8317;52.186;5.688;2022-12-07T03:59:14;3.20;99.90
16417;DHT22;8317;52.186;5.688;2022-12-07T04:01:44;3.10;99.90
16417;DHT22;8317;52.186;5.688;2022-12-07T04:04:12;2.80;99.90
16417;DHT22;8317;52.186;5.688;2022-12-07T04:06:38;2.80;99.90
16417;DHT22;8317;52.186;5.688;2022-12-07T04:09:05;2.80;99.90
16417;DHT22;8317;52.186;5.688;2022-12-07T04:11:32;2.80;99.90
16417;DHT22;8317;52.186;5.688;2022-12-07T04:13:59;2.80;99.90
16417;DHT22;8317;52.186;5.688;2022-12-07T04:16:45;2.90;99.90
16417;DHT22;8317;52.186;5.688;2022-12-07T04:19:11;3.00;99.90
16417;DHT22;8317;52.186;5.688;2022-12-07T04:21:39;3.20;99.90
16417;DHT22;8317;52.186;5.688;2022-12-07T04:24:06;3.20;99.90
16417;DHT22;8317;52.186;5.688;2022-12-07T04:26:33;3.40;99.90
16417;DHT22;8317;52.186;5.688;2022-12-07T04:29:00;3.30;99.90
16417;DHT22;8317;52.186;5.688;2022-12-07T04:31:26;3.30;99.90
16417;DHT22;8317;52.186;5.688;2022-12-07T04:33:55;3.30;99.90
16417;DHT22;8317;52.186;5.688;2022-12-07T04:36:22;3.30;99.90
16417;DHT22;8317;52.186;5.688;2022-12-07T04:38:48;3.40;99.90
16417;DHT22;8317;52.186;5.688;2022-12-07T04:41:15;3.40;99.90
16417;DHT22;8317;52.186;5.688;2022-12-07T04:43:42;3.40;99.90
16417;DHT22;8317;52.186;5.688;2022-12-07T04:46:09;3.40;99.90
16417;DHT22;8317;52.186;5.688;2022-12-07T04:48:36;3.40;99.90
16417;DHT22;8317;52.186;5.688;2022-12-07T04:51:05;3.40;99.90
16417;DHT22;8317;52.186;5.688;2022-12-07T04:53:32;3.40;99.90
16417;DHT22;8317;52.186;5.688;2022-12-07T04:55:58;3.30;99.90
16417;DHT22;8317;52.186;5.688;2022-12-07T04:58:26;3.30;99.90
16417;DHT22;8317;52.186;5.688;2022-12-07T05:00:55;3.30;99.90
16417;DHT22;8317;52.186;5.688;2022-12-07T05:03:22;3.30;99.90
16417;DHT22;8317;52.186;5.688;2022-12-07T05:05:49;3.30;99.90
16417;DHT22;8317;52.186;5.688;2022-12-07T05:08:17;3.30;99.90
16417;DHT22;8317;52.186;5.688;2022-12-07T05:10:44;3.30;99.90
16417;DHT22;8317;52.186;5.688;2022-12-07T05:13:11;3.40;99.90
16417;DHT22;8317;52.186;5.688;2022-12-07T05:15:38;3.50;99.90
16417;DHT22;8317;52.186;5.688;2022-12-07T05:18:05;3.50;99.90
16417;DHT22;8317;52.186;5.688;2022-12-07T05:20:31;3.50;99.90
16417;DHT22;8317;52.186;5.688;2022-12-07T05:22:58;3.40;99.90
16417;DHT22;8317;52.186;5.688;2022-12-07T05:25:27;3.20;99.90
16417;DHT22;8317;52.186;5.688;2022-12-07T05:27:55;3.10;99.90
16417;DHT22;8317;52.186;5.688;2022-12-07T05:30:22;3.20;99.90
16417;DHT22;8317;52.186;5.688;2022-12-07T05:32:49;3.20;99.90
16417;DHT22;8317;52.186;5.688;2022-12-07T05:35:16;3.10;99.90
16417;DHT22;8317;52.186;5.688;2022-12-07T05:37:43;3.10;99.90
16417;DHT22;8317;52.186;5.688;2022-12-07T05:40:11;3.10;99.90
16417;DHT22;8317;52.186;5.688;2022-12-07T05:42:40;3.10;99.90
16417;DHT22;8317;52.186;5.688;2022-12-07T05:45:08;3.00;99.90
16417;DHT22;8317;52.186;5.688;2022-12-07T05:47:36;3.10;99.90
16417;DHT22;8317;52.186;5.688;2022-12-07T05:50:04;3.20;99.90
16417;DHT22;8317;52.186;5.688;2022-12-07T05:52:32;3.20;99.90
16417;DHT22;8317;52.186;5.688;2022-12-07T05:54:59;3.10;99.90
16417;DHT22;8317;52.186;5.688;2022-12-07T05:57:26;3.10;99.90
16417;DHT22;8317;52.186;5.688;2022-12-07T05:59:54;3.10;99.90
16417;DHT22;8317;52.186;5.688;2022-12-07T06:02:20;3.10;99.90
16417;DHT22;8317;52.186;5.688;2022-12-07T06:04:47;3.00;99.90
16417;DHT22;8317;52.186;5.688;2022-12-07T06:07:16;3.00;99.90
16417;DHT22;8317;52.186;5.688;2022-12-07T06:09:43;3.00;99.90
16417;DHT22;8317;52.186;5.688;2022-12-07T06:12:10;3.10;99.90
16417;DHT22;8317;52.186;5.688;2022-12-07T06:14:56;3.00;99.90
16417;DHT22;8317;52.186;5.688;2022-12-07T06:17:23;3.00;99.90
16417;DHT22;8317;52.186;5.688;2022-12-07T06:19:50;3.00;99.90
16417;DHT22;8317;52.186;5.688;2022-12-07T06:22:18;3.10;99.90
16417;DHT22;8317;52.186;5.688;2022-12-07T06:24:45;3.10;99.90
16417;DHT22;8317;52.186;5.688;2022-12-07T06:27:12;3.00;99.90
16417;DHT22;8317;52.186;5.688;2022-12-07T06:29:38;3.00;99.90
16417;DHT22;8317;52.186;5.688;2022-12-07T06:32:07;3.10;99.90
16417;DHT22;8317;52.186;5.688;2022-12-07T06:34:34;3.10;99.90
16417;DHT22;8317;52.186;5.688;2022-12-07T06:37:01;3.30;99.90
16417;DHT22;8317;52.186;5.688;2022-12-07T06:39:29;3.20;99.90
16417;DHT22;8317;52.186;5.688;2022-12-07T06:41:56;3.20;99.90
16417;DHT22;8317;52.186;5.688;2022-12-07T06:44:23;3.20;99.90
16417;DHT22;8317;52.186;5.688;2022-12-07T06:46:51;3.10;99.90
16417;DHT22;8317;52.186;5.688;2022-12-07T06:49:19;3.00;99.90
16417;DHT22;8317;52.186;5.688;2022-12-07T06:51:46;2.90;99.90
16417;DHT22;8317;52.186;5.688;2022-12-07T06:54:14;2.90;99.90
16417;DHT22;8317;52.186;5.688;2022-12-07T06:56:42;2.80;99.90
16417;DHT22;8317;52.186;5.688;2022-12-07T06:59:09;2.80;99.90
16417;DHT22;8317;52.186;5.688;2022-12-07T07:01:36;2.90;99.90
16417;DHT22;8317;52.186;5.688;2022-12-07T07:04:03;2.90;99.90
16417;DHT22;8317;52.186;5.688;2022-12-07T07:06:31;3.00;99.90
16417;DHT22;8317;52.186;5.688;2022-12-07T07:08:58;3.00;99.90
16417;DHT22;8317;52.186;5.688;2022-12-07T07:11:25;2.90;99.90
16417;DHT22;8317;52.186;5.688;2022-12-07T07:13:52;2.90;99.90
16417;DHT22;8317;52.186;5.688;2022-12-07T07:16:22;2.70;99.90
16417;DHT22;8317;52.186;5.688;2022-12-07T07:18:49;2.70;99.90
16417;DHT22;8317;52.186;5.688;2022-12-07T07:21:16;2.70;99.90
16417;DHT22;8317;52.186;5.688;2022-12-07T07:23:44;2.80;99.90
16417;DHT22;8317;52.186;5.688;2022-12-07T07:26:11;2.90;99.90
16417;DHT22;8317;52.186;5.688;2022-12-07T07:28:38;2.90;99.90
16417;DHT22;8317;52.186;5.688;2022-12-07T07:31:05;2.80;99.90
16417;DHT22;8317;52.186;5.688;2022-12-07T07:33:32;2.80;99.90
16417;DHT22;8317;52.186;5.688;2022-12-07T07:35:59;2.70;99.90
16417;DHT22;8317;52.186;5.688;2022-12-07T07:38:26;2.70;99.90
16417;DHT22;8317;52.186;5.688;2022-12-07T07:40:54;2.70;99.90
16417;DHT22;8317;52.186;5.688;2022-12-07T07:43:21;2.70;99.90
16417;DHT22;8317;52.186;5.688;2022-12-07T07:45:48;2.70;99.90
16417;DHT22;8317;52.186;5.688;2022-12-07T07:48:16;2.60;99.90
16417;DHT22;8317;52.186;5.688;2022-12-07T07:50:43;2.60;99.90
16417;DHT22;8317;52.186;5.688;2022-12-07T07:53:10;2.60;99.90
16417;DHT22;8317;52.186;5.688;2022-12-07T07:55:36;2.50;99.90
16417;DHT22;8317;52.186;5.688;2022-12-07T07:58:05;2.50;99.90
16417;DHT22;8317;52.186;5.688;2022-12-07T08:00:32;2.50;99.90
16417;DHT22;8317;52.186;5.688;2022-12-07T08:02:59;2.60;99.90
16417;DHT22;8317;52.186;5.688;2022-12-07T08:05:25;2.60;99.90
16417;DHT22;8317;52.186;5.688;2022-12-07T08:07:52;2.90;99.90
16417;DHT22;8317;52.186;5.688;2022-12-07T08:10:19;2.90;99.90
16417;DHT22;8317;52.186;5.688;2022-12-07T08:12:46;2.70;99.90
16417;DHT22;8317;52.186;5.688;2022-12-07T08:15:32;2.70;99.90
16417;DHT22;8317;52.186;5.688;2022-12-07T08:17:59;2.80;99.90
16417;DHT22;8317;52.186;5.688;2022-12-07T08:20:26;2.80;99.90
16417;DHT22;8317;52.186;5.688;2022-12-07T08:22:52;2.80;99.90
16417;DHT22;8317;52.186;5.688;2022-12-07T08:25:19;2.90;99.90
16417;DHT22;8317;52.186;5.688;2022-12-07T08:27:47;2.80;99.90
16417;DHT22;8317;52.186;5.688;2022-12-07T08:30:15;2.90;99.90
16417;DHT22;8317;52.186;5.688;2022-12-07T08:32:44;2.90;99.90
16417;DHT22;8317;52.186;5.688;2022-12-07T08:35:11;2.90;99.90
16417;DHT22;8317;52.186;5.688;2022-12-07T08:37:39;3.00;99.90
16417;DHT22;8317;52.186;5.688;2022-12-07T08:40:07;3.00;99.90
16417;DHT22;8317;52.186;5.688;2022-12-07T08:42:34;3.20;99.90
16417;DHT22;8317;52.186;5.688;2022-12-07T08:45:06;3.40;99.90
16417;DHT22;8317;52.186;5.688;2022-12-07T08:47:34;3.40;99.90
16417;DHT22;8317;52.186;5.688;2022-12-07T08:50:03;3.50;99.90
16417;DHT22;8317;52.186;5.688;2022-12-07T08:52:31;3.50;99.90
16417;DHT22;8317;52.186;5.688;2022-12-07T08:54:59;3.80;99.90
16417;DHT22;8317;52.186;5.688;2022-12-07T08:57:26;4.10;99.90
16417;DHT22;8317;52.186;5.688;2022-12-07T08:59:54;4.30;99.90
16417;DHT22;8317;52.186;5.688;2022-12-07T09:02:21;4.50;99.90
16417;DHT22;8317;52.186;5.688;2022-12-07T09:04:48;4.60;99.90
16417;DHT22;8317;52.186;5.688;2022-12-07T09:07:16;4.60;99.90
16417;DHT22;8317;52.186;5.688;2022-12-07T09:09:43;4.60;99.90
16417;DHT22;8317;52.186;5.688;2022-12-07T09:12:10;4.50;99.90
16417;DHT22;8317;52.186;5.688;2022-12-07T09:14:37;4.40;99.90
16417;DHT22;8317;52.186;5.688;2022-12-07T09:17:07;4.40;99.90
16417;DHT22;8317;52.186;5.688;2022-12-07T09:19:35;4.50;99.90
16417;DHT22;8317;52.186;5.688;2022-12-07T09:22:02;4.50;99.90
16417;DHT22;8317;52.186;5.688;2022-12-07T09:24:31;4.50;99.90
16417;DHT22;8317;52.186;5.688;2022-12-07T09:26:58;4.60;99.90
16417;DHT22;8317;52.186;5.688;2022-12-07T09:29:25;4.60;99.90
16417;DHT22;8317;52.186;5.688;2022-12-07T09:31:52;4.70;99.90
16417;DHT22;8317;52.186;5.688;2022-12-07T09:34:19;5.00;99.90
16417;DHT22;8317;52.186;5.688;2022-12-07T09:36:47;5.40;99.90
16417;DHT22;8317;52.186;5.688;2022-12-07T09:39:14;5.80;99.90
16417;DHT22;8317;52.186;5.688;2022-12-07T09:41:44;6.20;99.90
16417;DHT22;8317;52.186;5.688;2022-12-07T09:44:14;6.70;99.90
16417;DHT22;8317;52.186;5.688;2022-12-07T09:46:45;7.10;99.90
16417;DHT22;8317;52.186;5.688;2022-12-07T09:49:16;7.50;99.90
16417;DHT22;8317;52.186;5.688;2022-12-07T09:51:43;7.80;99.90
16417;DHT22;8317;52.186;5.688;2022-12-07T09:54:12;8.30;99.90
16417;DHT22;8317;52.186;5.688;2022-12-07T09:56:40;7.80;99.90
16417;DHT22;8317;52.186;5.688;2022-12-07T09:59:15;7.80;99.90
16417;DHT22;8317;52.186;5.688;2022-12-07T10:01:43;7.50;99.90
16417;DHT22;8317;52.186;5.688;2022-12-07T10:04:14;7.70;99.90
16417;DHT22;8317;52.186;5.688;2022-12-07T10:06:42;7.80;99.90
16417;DHT22;8317;52.186;5.688;2022-12-07T10:09:10;8.10;99.90
16417;DHT22;8317;52.186;5.688;2022-12-07T10:11:59;8.20;99.90
16417;DHT22;8317;52.186;5.688;2022-12-07T10:14:30;8.70;99.90
16417;DHT22;8317;52.186;5.688;2022-12-07T10:16:58;8.70;99.90
16417;DHT22;8317;52.186;5.688;2022-12-07T10:19:27;8.90;99.90
16417;DHT22;8317;52.186;5.688;2022-12-07T10:22:04;9.20;99.90
16417;DHT22;8317;52.186;5.688;2022-12-07T10:24:31;9.00;99.90
16417;DHT22;8317;52.186;5.688;2022-12-07T10:26:59;8.60;99.90
16417;DHT22;8317;52.186;5.688;2022-12-07T10:29:31;8.90;99.90
16417;DHT22;8317;52.186;5.688;2022-12-07T10:32:00;8.90;99.90
16417;DHT22;8317;52.186;5.688;2022-12-07T10:34:28;9.10;99.90
16417;DHT22;8317;52.186;5.688;2022-12-07T10:37:14;9.40;99.90
16417;DHT22;8317;52.186;5.688;2022-12-07T10:39:43;9.50;99.90
16417;DHT22;8317;52.186;5.688;2022-12-07T10:42:18;9.40;99.90
16417;DHT22;8317;52.186;5.688;2022-12-07T10:44:47;8.80;99.90
16417;DHT22;8317;52.186;5.688;2022-12-07T10:47:21;8.30;99.90
16417;DHT22;8317;52.186;5.688;2022-12-07T10:50:17;8.20;99.90
16417;DHT22;8317;52.186;5.688;2022-12-07T10:53:03;8.40;99.90
16417;DHT22;8317;52.186;5.688;2022-12-07T10:55:41;8.20;99.90
16417;DHT22;8317;52.186;5.688;2022-12-07T10:58:31;7.80;99.90
16417;DHT22;8317;52.186;5.688;2022-12-07T11:01:10;7.40;99.90
16417;DHT22;8317;52.186;5.688;2022-12-07T11:03:50;7.40;99.90
16417;DHT22;8317;52.186;5.688;2022-12-07T11:06:26;7.30;99.90
16417;DHT22;8317;52.186;5.688;2022-12-07T11:11:52;7.20;99.90
16417;DHT22;8317;52.186;5.688;2022-12-07T11:14:26;7.10;99.90
16417;DHT22;8317;52.186;5.688;2022-12-07T11:16:59;7.20;99.90
16417;DHT22;8317;52.186;5.688;2022-12-07T11:19:49;7.10;99.90
16417;DHT22;8317;52.186;5.688;2022-12-07T11:22:25;7.30;99.90
16417;DHT22;8317;52.186;5.688;2022-12-07T11:24:57;7.20;99.90
16417;DHT22;8317;52.186;5.688;2022-12-07T11:27:34;7.10;99.90
16417;DHT22;8317;52.186;5.688;2022-12-07T11:30:14;7.20;99.90
16417;DHT22;8317;52.186;5.688;2022-12-07T11:33:03;7.50;99.90
16417;DHT22;8317;52.186;5.688;2022-12-07T11:35:39;7.50;99.90
16417;DHT22;8317;52.186;5.688;2022-12-07T11:38:12;7.70;99.90
16417;DHT22;8317;52.186;5.688;2022-12-07T11:40:43;8.00;99.90
16417;DHT22;8317;52.186;5.688;2022-12-07T11:43:18;8.00;99.90
16417;DHT22;8317;52.186;5.688;2022-12-07T11:45:52;7.90;99.90
16417;DHT22;8317;52.186;5.688;2022-12-07T11:48:25;7.80;99.90
16417;DHT22;8317;52.186;5.688;2022-12-07T11:50:57;7.60;99.90
16417;DHT22;8317;52.186;5.688;2022-12-07T11:53:29;7.60;99.90
16417;DHT22;8317;52.186;5.688;2022-12-07T11:56:04;7.50;99.90
16417;DHT22;8317;52.186;5.688;2022-12-07T11:58:48;7.50;99.90
16417;DHT22;8317;52.186;5.688;2022-12-07T12:01:37;7.60;99.90
16417;DHT22;8317;52.186;5.688;2022-12-07T12:04:17;7.40;99.90
16417;DHT22;8317;52.186;5.688;2022-12-07T12:06:45;7.30;99.90
16417;DHT22;8317;52.186;5.688;2022-12-07T12:09:14;7.10;99.90
16417;DHT22;8317;52.186;5.688;2022-12-07T12:11:59;7.10;99.90
16417;DHT22;8317;52.186;5.688;2022-12-07T12:14:41;7.10;99.90
16417;DHT22;8317;52.186;5.688;2022-12-07T12:17:22;7.20;99.90
16417;DHT22;8317;52.186;5.688;2022-12-07T12:20:01;7.50;99.90
16417;DHT22;8317;52.186;5.688;2022-12-07T12:22:34;7.60;99.90
16417;DHT22;8317;52.186;5.688;2022-12-07T12:25:05;7.50;99.90
16417;DHT22;8317;52.186;5.688;2022-12-07T12:27:34;7.60;99.90
16417;DHT22;8317;52.186;5.688;2022-12-07T12:30:03;7.50;99.90
16417;DHT22;8317;52.186;5.688;2022-12-07T12:32:37;7.80;99.90
16417;DHT22;8317;52.186;5.688;2022-12-07T12:35:27;8.30;99.90
16417;DHT22;8317;52.186;5.688;2022-12-07T12:38:27;8.70;99.90
16417;DHT22;8317;52.186;5.688;2022-12-07T12:40:54;9.50;99.90
16417;DHT22;8317;52.186;5.688;2022-12-07T12:43:48;9.80;99.90
16417;DHT22;8317;52.186;5.688;2022-12-07T12:46:51;9.50;99.90
16417;DHT22;8317;52.186;5.688;2022-12-07T12:49:42;9.90;99.90
16417;DHT22;8317;52.186;5.688;2022-12-07T12:55:17;10.30;99.90
16417;DHT22;8317;52.186;5.688;2022-12-07T12:57:48;9.90;99.90
16417;DHT22;8317;52.186;5.688;2022-12-07T13:00:35;9.40;99.90
16417;DHT22;8317;52.186;5.688;2022-12-07T13:03:01;9.10;99.90
16417;DHT22;8317;52.186;5.688;2022-12-07T13:05:30;8.60;99.90
16417;DHT22;8317;52.186;5.688;2022-12-07T13:07:59;8.50;99.90
16417;DHT22;8317;52.186;5.688;2022-12-07T13:10:44;8.20;99.90
16417;DHT22;8317;52.186;5.688;2022-12-07T13:13:35;8.00;99.90
16417;DHT22;8317;52.186;5.688;2022-12-07T13:16:36;7.80;99.90
16417;DHT22;8317;52.186;5.688;2022-12-07T13:22:52;7.80;99.90
16417;DHT22;8317;52.186;5.688;2022-12-07T13:25:33;7.60;99.90
16417;DHT22;8317;52.186;5.688;2022-12-07T13:28:11;7.40;99.90
16417;DHT22;8317;52.186;5.688;2022-12-07T13:30:45;7.20;99.90
16417;DHT22;8317;52.186;5.688;2022-12-07T13:33:13;7.10;99.90
16417;DHT22;8317;52.186;5.688;2022-12-07T13:35:41;7.00;99.90
16417;DHT22;8317;52.186;5.688;2022-12-07T13:38:21;7.30;99.90
16417;DHT22;8317;52.186;5.688;2022-12-07T13:41:00;7.80;99.90
16417;DHT22;8317;52.186;5.688;2022-12-07T13:43:29;8.10;99.90
16417;DHT22;8317;52.186;5.688;2022-12-07T13:45:57;8.60;99.90
16417;DHT22;8317;52.186;5.688;2022-12-07T13:48:30;8.50;99.90
16417;DHT22;8317;52.186;5.688;2022-12-07T13:50:59;8.50;99.90
16417;DHT22;8317;52.186;5.688;2022-12-07T13:53:27;8.50;99.90
16417;DHT22;8317;52.186;5.688;2022-12-07T13:55:56;8.40;99.90
16417;DHT22;8317;52.186;5.688;2022-12-07T13:58:24;8.00;99.90
16417;DHT22;8317;52.186;5.688;2022-12-07T14:00:52;7.60;99.90
16417;DHT22;8317;52.186;5.688;2022-12-07T14:03:31;7.20;99.90
16417;DHT22;8317;52.186;5.688;2022-12-07T14:06:11;7.10;99.90
16417;DHT22;8317;52.186;5.688;2022-12-07T14:08:40;6.80;99.90
16417;DHT22;8317;52.186;5.688;2022-12-07T14:11:09;6.60;99.90
16417;DHT22;8317;52.186;5.688;2022-12-07T14:13:39;6.40;99.90
16417;DHT22;8317;52.186;5.688;2022-12-07T14:16:23;6.40;99.90
16417;DHT22;8317;52.186;5.688;2022-12-07T14:18:51;6.40;99.90
16417;DHT22;8317;52.186;5.688;2022-12-07T14:21:21;6.30;99.90
16417;DHT22;8317;52.186;5.688;2022-12-07T14:24:08;6.40;99.90
16417;DHT22;8317;52.186;5.688;2022-12-07T14:26:37;6.30;99.90
16417;DHT22;8317;52.186;5.688;2022-12-07T14:29:31;6.30;99.90
16417;DHT22;8317;52.186;5.688;2022-12-07T14:32:18;6.20;99.90
16417;DHT22;8317;52.186;5.688;2022-12-07T14:34:56;6.40;99.90
16417;DHT22;8317;52.186;5.688;2022-12-07T14:37:23;6.30;99.90
16417;DHT22;8317;52.186;5.688;2022-12-07T14:39:51;6.30;99.90
16417;DHT22;8317;52.186;5.688;2022-12-07T14:42:18;6.20;99.90
16417;DHT22;8317;52.186;5.688;2022-12-07T14:44:45;6.20;99.90
16417;DHT22;8317;52.186;5.688;2022-12-07T14:47:14;6.10;99.90
16417;DHT22;8317;52.186;5.688;2022-12-07T14:49:41;6.20;99.90
16417;DHT22;8317;52.186;5.688;2022-12-07T14:52:13;6.30;99.90
16417;DHT22;8317;52.186;5.688;2022-12-07T14:54:41;6.30;99.90
16417;DHT22;8317;52.186;5.688;2022-12-07T14:57:08;6.20;99.90
16417;DHT22;8317;52.186;5.688;2022-12-07T14:59:35;6.20;99.90
16417;DHT22;8317;52.186;5.688;2022-12-07T15:02:02;6.20;99.90
16417;DHT22;8317;52.186;5.688;2022-12-07T15:04:31;6.20;99.90
16417;DHT22;8317;52.186;5.688;2022-12-07T15:06:59;6.30;99.90
16417;DHT22;8317;52.186;5.688;2022-12-07T15:09:26;6.20;99.90
16417;DHT22;8317;52.186;5.688;2022-12-07T15:11:53;6.20;99.90
16417;DHT22;8317;52.186;5.688;2022-12-07T15:14:20;6.10;99.90
16417;DHT22;8317;52.186;5.688;2022-12-07T15:16:47;6.10;99.90
16417;DHT22;8317;52.186;5.688;2022-12-07T15:19:16;6.00;99.90
16417;DHT22;8317;52.186;5.688;2022-12-07T15:21:44;6.00;99.90
16417;DHT22;8317;52.186;5.688;2022-12-07T15:24:12;6.00;99.90
16417;DHT22;8317;52.186;5.688;2022-12-07T15:26:39;6.10;99.90
16417;DHT22;8317;52.186;5.688;2022-12-07T15:29:07;6.10;99.90
16417;DHT22;8317;52.186;5.688;2022-12-07T15:31:35;6.00;99.90
16417;DHT22;8317;52.186;5.688;2022-12-07T15:34:02;6.00;99.90
16417;DHT22;8317;52.186;5.688;2022-12-07T15:36:31;5.90;99.90
16417;DHT22;8317;52.186;5.688;2022-12-07T15:39:00;5.90;99.90
16417;DHT22;8317;52.186;5.688;2022-12-07T15:41:27;5.90;99.90
16417;DHT22;8317;52.186;5.688;2022-12-07T15:43:54;5.90;99.90
16417;DHT22;8317;52.186;5.688;2022-12-07T15:46:40;5.80;99.90
16417;DHT22;8317;52.186;5.688;2022-12-07T15:49:10;5.70;99.90
16417;DHT22;8317;52.186;5.688;2022-12-07T15:51:37;5.80;99.90
16417;DHT22;8317;52.186;5.688;2022-12-07T15:54:05;5.70;99.90
16417;DHT22;8317;52.186;5.688;2022-12-07T15:56:32;5.70;99.90
16417;DHT22;8317;52.186;5.688;2022-12-07T15:58:59;5.70;99.90
16417;DHT22;8317;52.186;5.688;2022-12-07T16:01:26;5.70;99.90
16417;DHT22;8317;52.186;5.688;2022-12-07T16:03:53;5.80;99.90
16417;DHT22;8317;52.186;5.688;2022-12-07T16:06:20;5.80;99.90
16417;DHT22;8317;52.186;5.688;2022-12-07T16:08:47;5.80;99.90
16417;DHT22;8317;52.186;5.688;2022-12-07T16:11:15;5.80;99.90
16417;DHT22;8317;52.186;5.688;2022-12-07T16:13:42;5.90;99.90
16417;DHT22;8317;52.186;5.688;2022-12-07T16:16:15;5.90;99.90
16417;DHT22;8317;52.186;5.688;2022-12-07T16:18:44;5.80;99.90
16417;DHT22;8317;52.186;5.688;2022-12-07T16:21:12;5.90;99.90
16417;DHT22;8317;52.186;5.688;2022-12-07T16:23:39;5.80;99.90
16417;DHT22;8317;52.186;5.688;2022-12-07T16:26:07;5.80;99.90
16417;DHT22;8317;52.186;5.688;2022-12-07T16:28:36;5.80;99.90
16417;DHT22;8317;52.186;5.688;2022-12-07T16:31:04;5.80;99.90
16417;DHT22;8317;52.186;5.688;2022-12-07T16:33:33;5.80;99.90